createdAt,value
2024-03-26T00:04:19.313Z,30.90
2024-03-26T00:14:22.806Z,30.60
2024-03-26T00:24:25.710Z,27.00
2024-03-26T00:34:28.775Z,31.50
2024-03-26T00:44:31.648Z,33.90
2024-03-26T00:54:34.592Z,34.30
2024-03-26T01:04:37.494Z,29.40
2024-03-26T01:14:40.348Z,36.90
2024-03-26T01:24:43.316Z,41.70
2024-03-26T01:34:46.186Z,38.90
2024-03-26T01:44:49.176Z,41.00
2024-03-26T01:54:52.536Z,24.40
2024-03-26T02:04:55.862Z,21.40
2024-03-26T02:14:58.778Z,19.90
2024-03-26T02:25:01.824Z,17.80
2024-03-26T02:35:04.997Z,20.20
2024-03-26T02:45:08.804Z,19.00
2024-03-26T02:55:12.004Z,18.60
2024-03-26T03:05:15.055Z,20.80
2024-03-26T03:15:17.981Z,34.70
2024-03-26T03:25:21.441Z,16.50
2024-03-26T03:35:24.472Z,14.20
2024-03-26T03:45:29.353Z,15.80
2024-03-26T03:55:32.318Z,13.70
2024-03-26T04:05:38.702Z,13.20
2024-03-26T04:15:42.558Z,14.20
2024-03-26T04:25:56.042Z,28.60
2024-03-26T04:35:59.833Z,18.50
2024-03-26T04:46:02.775Z,17.10
2024-03-26T04:56:06.141Z,18.60
2024-03-26T05:06:09.052Z,23.30
2024-03-26T05:16:11.940Z,17.90
2024-03-26T05:26:15.253Z,29.10
2024-03-26T05:36:18.345Z,19.10
2024-03-26T05:46:21.715Z,18.00
2024-03-26T05:56:24.836Z,19.60
2024-03-26T06:06:27.715Z,20.90
2024-03-26T06:16:30.690Z,25.80
2024-03-26T06:26:33.683Z,22.00
2024-03-26T06:36:36.777Z,21.80
2024-03-26T06:46:40.253Z,22.50
2024-03-26T06:56:43.207Z,24.20
2024-03-26T07:06:46.288Z,25.60
2024-03-26T07:16:49.342Z,22.70
2024-03-26T07:26:52.448Z,19.60
2024-03-26T07:36:55.323Z,17.70
2024-03-26T07:46:59.838Z,20.10
2024-03-26T07:57:04.057Z,17.80
2024-03-26T08:07:08.315Z,18.30
2024-03-26T08:17:11.374Z,17.40
2024-03-26T08:27:14.322Z,16.90
2024-03-26T08:37:17.284Z,12.60
2024-03-26T08:47:20.211Z,10.90
2024-03-26T08:57:23.276Z,11.40
2024-03-26T09:07:26.193Z,9.30
2024-03-26T09:17:29.246Z,8.80
2024-03-26T09:27:32.283Z,9.10
2024-03-26T09:37:35.606Z,8.30
2024-03-26T09:47:40.778Z,7.30
2024-03-26T09:57:45.399Z,7.50
2024-03-26T10:07:48.352Z,6.60
2024-03-26T10:17:51.276Z,6.90
2024-03-26T10:27:56.899Z,5.10
2024-03-26T10:38:13.008Z,2.40
2024-03-26T10:48:21.493Z,2.30
2024-03-26T10:58:24.627Z,2.40
2024-03-26T11:08:28.143Z,2.20
2024-03-26T11:18:33.832Z,2.40
2024-03-26T11:28:37.722Z,2.10
2024-03-26T11:38:41.311Z,2.70
2024-03-26T11:48:46.766Z,2.10
2024-03-26T11:58:50.934Z,2.20
2024-03-26T12:08:59.244Z,2.00
2024-03-26T12:19:02.799Z,2.00
2024-03-26T12:29:08.468Z,2.50
2024-03-26T12:39:12.088Z,2.00
2024-03-26T12:49:19.369Z,1.70
2024-03-26T12:59:22.458Z,2.00
2024-03-26T13:09:25.386Z,2.10
2024-03-26T13:19:29.612Z,2.00
2024-03-26T13:29:33.371Z,1.60
2024-03-26T13:39:36.259Z,1.80
2024-03-26T13:49:39.655Z,1.80
2024-03-26T13:59:45.525Z,3.90
2024-03-26T14:09:48.460Z,1.80
2024-03-26T14:19:51.384Z,2.40
2024-03-26T14:29:55.303Z,2.60
2024-03-26T14:39:59.422Z,3.30
2024-03-26T14:50:02.473Z,2.60
2024-03-26T15:00:06.728Z,2.10
2024-03-26T15:10:10.747Z,4.10
2024-03-26T15:20:15.870Z,2.80
2024-03-26T15:30:39.811Z,2.00
2024-03-26T15:40:43.565Z,3.20
2024-03-26T15:50:47.147Z,2.60
2024-03-26T16:00:50.320Z,3.40
2024-03-26T16:21:04.276Z,5.20
2024-03-26T16:31:08.221Z,3.90
2024-03-26T16:41:21.301Z,3.10
2024-03-26T16:51:24.312Z,4.20
2024-03-26T17:01:29.492Z,5.30
2024-03-26T17:11:35.420Z,4.50
2024-03-26T17:21:40.020Z,7.60
2024-03-26T17:31:43.068Z,6.40
2024-03-26T17:41:46.004Z,4.40
2024-03-26T17:51:49.119Z,4.80
2024-03-26T18:01:55.322Z,6.80
2024-03-26T18:11:59.433Z,5.30
2024-03-26T18:22:04.627Z,6.70
2024-03-26T18:32:07.553Z,10.00
2024-03-26T18:42:11.141Z,12.00
2024-03-26T18:52:14.108Z,12.20
2024-03-26T19:02:17.085Z,12.10
2024-03-26T19:12:23.379Z,8.30
2024-03-26T19:22:28.978Z,25.60
2024-03-26T19:32:31.953Z,11.90
2024-03-26T19:42:34.794Z,14.10
2024-03-26T19:52:38.615Z,16.20
2024-03-26T20:02:45.002Z,13.60
2024-03-26T20:12:48.226Z,15.40
2024-03-26T20:22:55.733Z,23.90
2024-03-26T20:32:59.789Z,21.30
2024-03-26T20:43:02.808Z,28.00
2024-03-26T20:53:06.389Z,33.30
2024-03-26T21:03:09.738Z,28.90
2024-03-26T21:13:12.819Z,33.40
2024-03-26T21:23:26.072Z,35.80
2024-03-26T21:33:29.436Z,32.50
2024-03-26T21:43:32.651Z,32.30
2024-03-26T21:53:35.528Z,49.10
2024-03-26T22:03:39.347Z,50.80
2024-03-26T22:13:42.288Z,42.10
2024-03-26T22:23:46.446Z,39.40
2024-03-26T22:33:49.627Z,71.10
2024-03-26T22:43:52.798Z,56.00
2024-03-26T22:53:55.736Z,49.40
2024-03-26T23:03:58.709Z,37.70
2024-03-26T23:14:01.630Z,43.70
2024-03-26T23:24:05.343Z,40.50
2024-03-26T23:34:08.589Z,29.60
2024-03-26T23:44:11.449Z,32.70
2024-03-26T23:54:14.336Z,31.80
